Northway Airport Northway US
ICAO: PAOR
IATA:
Category: Medium
Scheduled Services:

Elevation: 1715 ft
TransAlt. 18000 ft.

Airport Communications:
ASOS:135.4
ANCHORAGE CNTR:126.55
CTAF:123.6
RDO:122.2
SUAS INFO SVC:125.3

PAOR Zoom In..

Runways:

(A) RW 05 length 5100 ft width 100 ft
---- / hdg 52

(B) RW 23 length 5100 ft width 100 ft
---- / hdg 232

Location; PAOR
Day. 24 / Time. 12.53 Zulu
* Altimeter: 29.59
* Temperature: 04° c. 39.2°f.
* Wind from: 280° Speed 03 kn.
Dewpoint: 02° c.
Visibility: 10 Statute Miles.
Clouds: Scattered 4500 ft.
Clouds: Scattered 7500 ft.
Clouds: Broken 13000 ft.

PAOR 241253Z 28003KT 10SM SCT045 SCT075 BKN130 04/02 A2959 RMK AO2 SLP030 T00390022


Wind From 280°
Speed 03 kn.

 
 
jpsmedia.com for Web Design SOUNDCLOUD worldairports.se 2018   terms of use